Time;durP1;ratioP1;P1;durP2;ratioP2;P2;SDS_P1;SDS_P2;PMS_P1;PMS_P2;Temp;Humidity;BMP_temperature;BMP_pressure;BME280_temperature;BME280_humidity;BME280_pressure;Samples;Min_cycle;Max_cycle;Signal;HPM_P1;HPM_P2
2023/09/20 00:00:11;;;;;;;2.10;1.80;;;19.40;99.90;;;;;;5070654;28;20255;-70
2023/09/20 00:02:39;;;;;;;5.53;3.08;;;19.40;99.90;;;;;;5073150;28;20345;-71
2023/09/20 00:05:12;;;;;;;4.20;2.30;;;19.40;99.90;;;;;;5074992;28;20252;-70
2023/09/20 00:07:40;;;;;;;3.05;2.35;;;19.30;99.90;;;;;;5074187;28;20209;-71
2023/09/20 00:10:12;;;;;;;4.63;2.92;;;19.10;99.90;;;;;;5074456;28;20202;-71
2023/09/20 00:12:39;;;;;;;4.35;2.42;;;19.20;99.90;;;;;;5073802;28;20584;-70
2023/09/20 00:15:08;;;;;;;3.20;2.33;;;19.10;99.90;;;;;;5074348;28;20209;-70
2023/09/20 00:17:36;;;;;;;3.42;2.80;;;19.10;99.90;;;;;;5074104;28;20202;-71
2023/09/20 00:20:11;;;;;;;4.13;2.80;;;19.10;99.90;;;;;;5074426;28;20745;-70
2023/09/20 00:22:43;;;;;;;4.18;2.70;;;19.10;99.90;;;;;;5073735;28;20236;-71
2023/09/20 00:25:11;;;;;;;2.95;2.50;;;19.00;99.90;;;;;;5074253;28;20234;-71
2023/09/20 00:27:39;;;;;;;3.35;2.22;;;19.00;99.90;;;;;;5073663;28;20206;-71
2023/09/20 00:30:10;;;;;;;3.08;2.55;;;19.00;99.90;;;;;;5074099;28;20202;-69
2023/09/20 00:32:39;;;;;;;4.90;2.35;;;19.10;99.90;;;;;;5073768;28;20217;-70
2023/09/20 00:35:08;;;;;;;3.88;3.15;;;19.10;99.90;;;;;;5073943;28;20657;-70
2023/09/20 00:37:35;;;;;;;4.47;2.72;;;19.20;99.90;;;;;;5073471;28;20703;-69
2023/09/20 00:40:04;;;;;;;3.95;2.63;;;19.20;99.90;;;;;;5073908;28;20296;-71
2023/09/20 00:42:32;;;;;;;4.00;2.53;;;19.20;99.90;;;;;;5073628;28;20291;-73
2023/09/20 00:45:01;;;;;;;5.03;3.63;;;19.20;99.90;;;;;;5073743;28;20202;-71
2023/09/20 00:47:29;;;;;;;5.13;2.92;;;19.20;99.90;;;;;;5073466;28;20198;-71
2023/09/20 00:49:57;;;;;;;4.72;2.75;;;19.10;99.90;;;;;;5073779;28;20674;-71
2023/09/20 00:52:24;;;;;;;5.65;2.08;;;19.10;99.90;;;;;;5073155;28;20203;-71
2023/09/20 00:54:51;;;;;;;3.67;2.03;;;19.10;99.90;;;;;;5073779;28;20241;-70
2023/09/20 00:57:19;;;;;;;4.97;2.53;;;19.00;99.90;;;;;;5073358;28;20244;-74
2023/09/20 00:59:47;;;;;;;4.15;2.20;;;19.00;99.90;;;;;;5073921;28;20298;-74
2023/09/20 01:02:15;;;;;;;4.95;2.50;;;19.00;99.90;;;;;;5073750;28;20198;-75
2023/09/20 01:04:43;;;;;;;5.47;2.65;;;18.80;99.90;;;;;;5073227;28;20293;-74
2023/09/20 01:07:10;;;;;;;4.13;2.53;;;18.70;99.90;;;;;;5073743;28;20206;-72
2023/09/20 01:09:37;;;;;;;3.80;2.13;;;18.70;99.90;;;;;;5073074;28;20292;-72
2023/09/20 01:12:06;;;;;;;4.05;2.35;;;18.70;99.90;;;;;;5072795;28;20256;-74
2023/09/20 01:14:34;;;;;;;4.15;2.72;;;18.70;99.90;;;;;;5072986;28;20289;-77
2023/09/20 01:17:07;;;;;;;3.20;2.53;;;18.60;99.90;;;;;;5073042;28;20620;-78
2023/09/20 01:19:35;;;;;;;4.85;2.78;;;18.50;99.90;;;;;;5073091;28;20213;-76
2023/09/20 01:22:03;;;;;;;2.90;2.22;;;18.60;99.90;;;;;;5073350;28;20301;-76
2023/09/20 01:24:33;;;;;;;4.03;2.00;;;18.50;99.90;;;;;;5072829;28;20297;-72
2023/09/20 01:27:03;;;;;;;4.55;2.28;;;18.50;99.90;;;;;;5072811;28;20198;-72
2023/09/20 01:29:31;;;;;;;5.25;2.88;;;18.60;99.90;;;;;;5072333;28;20202;-71
2023/09/20 01:32:02;;;;;;;4.53;3.13;;;18.60;99.90;;;;;;5073260;28;20301;-71
2023/09/20 01:34:30;;;;;;;2.72;2.33;;;18.60;99.90;;;;;;5072469;28;20209;-71
2023/09/20 01:36:57;;;;;;;6.95;3.10;;;18.60;99.90;;;;;;5073038;28;20202;-71
2023/09/20 01:39:25;;;;;;;3.00;2.50;;;18.50;99.90;;;;;;5072251;28;20762;-72
2023/09/20 01:41:52;;;;;;;3.97;2.45;;;18.50;99.90;;;;;;5072568;28;20697;-74
2023/09/20 01:44:22;;;;;;;4.43;2.42;;;18.50;99.90;;;;;;5072617;28;20745;-74
2023/09/20 01:46:49;;;;;;;4.32;2.58;;;18.30;99.90;;;;;;5072665;28;20202;-74
2023/09/20 01:49:18;;;;;;;3.65;2.28;;;18.20;99.90;;;;;;5073061;28;20202;-75
2023/09/20 01:51:45;;;;;;;3.08;2.35;;;18.30;99.90;;;;;;5072701;28;20263;-74
2023/09/20 01:54:12;;;;;;;7.57;2.92;;;18.30;99.90;;;;;;5072765;28;20213;-73
2023/09/20 01:56:40;;;;;;;2.80;2.50;;;18.30;99.90;;;;;;5072140;28;20289;-74
2023/09/20 01:59:08;;;;;;;4.20;2.38;;;18.40;99.90;;;;;;5072518;28;20666;-73
2023/09/20 02:01:37;;;;;;;2.90;1.98;;;18.30;99.90;;;;;;5072109;28;20202;-74
2023/09/20 02:04:05;;;;;;;3.00;2.33;;;18.30;99.90;;;;;;5072230;28;20238;-74
2023/09/20 02:06:32;;;;;;;4.38;2.28;;;18.40;99.90;;;;;;5071942;28;20234;-74
2023/09/20 02:08:59;;;;;;;3.25;2.00;;;18.30;99.90;;;;;;5072202;28;20202;-74
2023/09/20 02:11:26;;;;;;;3.33;2.55;;;18.10;99.90;;;;;;5071607;28;20560;-74
2023/09/20 02:13:55;;;;;;;4.07;2.72;;;18.10;99.90;;;;;;5072077;28;20650;-74
2023/09/20 02:16:21;;;;;;;2.30;2.00;;;18.00;99.90;;;;;;5071800;28;20244;-74
2023/09/20 02:18:49;;;;;;;2.33;1.70;;;18.10;99.90;;;;;;5072062;28;20260;-75
2023/09/20 02:21:16;;;;;;;2.63;1.65;;;18.20;99.90;;;;;;5072332;28;20202;-74
2023/09/20 02:23:42;;;;;;;2.78;2.28;;;18.20;99.90;;;;;;5071042;28;20234;-72
2023/09/20 02:26:10;;;;;;;4.03;2.17;;;18.20;99.90;;;;;;5071721;28;20230;-73
2023/09/20 02:28:37;;;;;;;3.70;2.47;;;18.20;99.90;;;;;;5071722;28;20198;-73
2023/09/20 02:31:05;;;;;;;2.92;1.83;;;18.10;99.90;;;;;;5071971;28;20226;-73
2023/09/20 02:33:32;;;;;;;3.38;1.52;;;18.00;99.90;;;;;;5071403;28;20296;-72
2023/09/20 02:35:59;;;;;;;6.13;2.40;;;17.80;99.90;;;;;;5071608;28;20670;-70
2023/09/20 02:38:28;;;;;;;3.67;1.98;;;17.80;99.90;;;;;;5071563;28;20205;-73
2023/09/20 02:40:57;;;;;;;5.30;2.53;;;17.70;99.90;;;;;;5071225;28;20305;-72
2023/09/20 02:43:26;;;;;;;4.60;2.60;;;17.80;99.90;;;;;;5071427;28;20269;-73
2023/09/20 02:45:54;;;;;;;4.32;2.17;;;17.90;99.90;;;;;;5071582;28;20209;-73
2023/09/20 02:48:22;;;;;;;4.10;2.33;;;17.90;99.90;;;;;;5071109;28;20206;-72
2023/09/20 02:50:50;;;;;;;4.03;2.35;;;17.80;99.90;;;;;;5071415;28;20241;-74
2023/09/20 02:53:18;;;;;;;1.90;1.60;;;17.80;99.90;;;;;;5071784;28;20668;-74
2023/09/20 02:55:46;;;;;;;3.40;1.92;;;17.90;99.90;;;;;;5071891;28;20210;-74
2023/09/20 02:58:13;;;;;;;4.15;2.17;;;17.90;99.90;;;;;;5071601;28;20248;-74
2023/09/20 03:00:46;;;;;;;3.72;1.65;;;17.90;99.90;;;;;;5071084;28;20324;-74
2023/09/20 03:03:15;;;;;;;5.50;1.88;;;17.80;99.90;;;;;;5071124;28;20233;-74
2023/09/20 03:05:44;;;;;;;3.25;1.75;;;17.70;99.90;;;;;;5070900;28;20686;-73
2023/09/20 03:08:11;;;;;;;1.95;1.58;;;17.80;99.90;;;;;;5071175;28;20234;-74
2023/09/20 03:10:41;;;;;;;3.33;2.05;;;17.90;99.90;;;;;;5070978;28;20226;-74
2023/09/20 03:13:10;;;;;;;2.70;2.08;;;18.00;99.90;;;;;;5071144;28;20218;-74
2023/09/20 03:15:43;;;;;;;3.17;2.22;;;18.00;99.90;;;;;;5070738;28;20202;-74
2023/09/20 03:18:11;;;;;;;4.50;2.55;;;17.70;99.90;;;;;;5071082;28;20244;-74
2023/09/20 03:20:38;;;;;;;2.95;1.80;;;17.70;99.90;;;;;;5070845;28;20547;-73
2023/09/20 03:23:07;;;;;;;1.98;1.77;;;17.80;99.90;;;;;;5070884;28;20226;-72
2023/09/20 03:25:35;;;;;;;7.28;2.35;;;17.70;99.90;;;;;;5070553;28;20766;-74
2023/09/20 03:28:04;;;;;;;4.40;2.40;;;17.80;99.90;;;;;;5070912;28;20262;-75
2023/09/20 03:30:33;;;;;;;4.35;1.98;;;17.80;99.90;;;;;;5070798;28;20289;-74
2023/09/20 03:33:00;;;;;;;3.22;1.88;;;17.90;99.90;;;;;;5071021;28;20202;-74
2023/09/20 03:35:28;;;;;;;3.70;1.83;;;17.90;99.90;;;;;;5070449;28;20242;-74
2023/09/20 03:37:55;;;;;;;3.38;2.33;;;17.90;99.90;;;;;;5070626;28;20229;-74
2023/09/20 03:40:23;;;;;;;4.78;3.17;;;17.70;99.90;;;;;;5070106;28;20291;-74
2023/09/20 03:42:52;;;;;;;7.75;2.53;;;17.60;99.90;;;;;;5070628;28;20206;-75
2023/09/20 03:45:19;;;;;;;3.13;1.95;;;17.50;99.90;;;;;;5071004;28;20209;-74
2023/09/20 03:47:47;;;;;;;2.22;1.70;;;17.50;99.90;;;;;;5071179;28;20198;-76
2023/09/20 03:50:17;;;;;;;2.95;1.65;;;17.50;99.90;;;;;;5071190;28;20199;-74
2023/09/20 03:52:43;;;;;;;2.78;2.33;;;17.50;99.90;;;;;;5070262;28;20213;-74
2023/09/20 03:55:10;;;;;;;4.05;2.22;;;17.50;99.90;;;;;;5070667;28;20294;-74
2023/09/20 03:57:39;;;;;;;4.15;2.60;;;17.60;99.90;;;;;;5070213;28;20206;-74
2023/09/20 04:00:11;;;;;;;3.13;1.42;;;17.60;99.90;;;;;;5070783;28;20198;-74
2023/09/20 04:02:38;;;;;;;2.72;1.77;;;17.60;99.90;;;;;;5070316;28;20202;-73
2023/09/20 04:05:13;;;;;;;3.60;2.78;;;17.60;99.90;;;;;;5070529;28;20325;-74
2023/09/20 04:07:41;;;;;;;2.70;2.05;;;17.70;99.90;;;;;;5069935;28;20243;-72
2023/09/20 04:10:09;;;;;;;2.75;2.13;;;17.50;99.90;;;;;;5070644;28;20647;-72
2023/09/20 04:12:36;;;;;;;4.43;2.78;;;17.50;99.90;;;;;;5070387;28;20229;-73
2023/09/20 04:15:05;;;;;;;3.55;2.53;;;17.50;99.90;;;;;;5070609;28;20213;-73
2023/09/20 04:17:33;;;;;;;4.07;1.90;;;17.50;99.90;;;;;;5070064;28;20299;-73
2023/09/20 04:20:00;;;;;;;3.85;2.13;;;17.50;99.90;;;;;;5070497;28;20202;-73
2023/09/20 04:22:27;;;;;;;2.17;1.60;;;17.60;99.90;;;;;;5069798;28;20591;-73
2023/09/20 04:24:55;;;;;;;1.77;1.55;;;17.60;99.90;;;;;;5074261;28;20221;-73
2023/09/20 04:27:22;;;;;;;2.30;1.83;;;17.70;99.90;;;;;;5089981;28;20201;-73
2023/09/20 04:29:49;;;;;;;3.15;1.80;;;17.50;99.90;;;;;;5090690;28;20244;-73
2023/09/20 04:32:18;;;;;;;5.10;2.38;;;17.60;99.90;;;;;;5071244;28;20629;-73
2023/09/20 04:34:45;;;;;;;4.97;2.42;;;17.60;99.90;;;;;;5070543;28;20247;-73
2023/09/20 04:37:13;;;;;;;3.95;2.10;;;17.60;99.90;;;;;;5070238;28;20224;-73
2023/09/20 04:39:40;;;;;;;2.30;1.58;;;17.60;99.90;;;;;;5069886;28;20218;-72
2023/09/20 04:42:10;;;;;;;5.45;2.30;;;17.60;99.90;;;;;;5070301;28;20226;-72
2023/09/20 04:44:38;;;;;;;3.17;2.20;;;17.50;99.90;;;;;;5089869;28;20282;-73
2023/09/20 04:47:05;;;;;;;4.03;2.38;;;17.40;99.90;;;;;;5090621;28;20240;-73
2023/09/20 04:49:34;;;;;;;5.82;2.30;;;17.40;99.90;;;;;;5093340;28;20292;-72
2023/09/20 04:52:01;;;;;;;2.72;2.00;;;17.50;99.90;;;;;;5093926;28;20552;-73
2023/09/20 04:54:28;;;;;;;4.28;2.20;;;17.50;99.90;;;;;;5093584;28;20212;-72
2023/09/20 04:56:55;;;;;;;3.13;1.95;;;17.50;99.90;;;;;;5093675;28;20208;-72
2023/09/20 04:59:23;;;;;;;5.35;1.63;;;17.40;99.90;;;;;;5093634;28;20284;-72
2023/09/20 05:01:50;;;;;;;6.93;2.10;;;17.30;99.90;;;;;;5093713;28;20302;-72
2023/09/20 05:04:19;;;;;;;2.90;1.80;;;17.20;99.90;;;;;;5093649;28;20243;-72
2023/09/20 05:06:48;;;;;;;2.67;1.85;;;17.20;99.90;;;;;;5094141;28;20202;-71
2023/09/20 05:09:15;;;;;;;5.13;1.80;;;17.30;99.90;;;;;;5093966;28;20296;-72
2023/09/20 05:11:42;;;;;;;2.40;2.00;;;17.40;99.90;;;;;;5093444;28;20229;-72
2023/09/20 05:14:09;;;;;;;5.82;2.05;;;17.50;99.90;;;;;;5093584;28;20288;-72
2023/09/20 05:16:35;;;;;;;3.67;2.35;;;17.50;99.90;;;;;;5092919;28;20293;-72
2023/09/20 05:19:03;;;;;;;5.82;1.55;;;17.40;99.90;;;;;;5089816;28;20285;-72
2023/09/20 05:21:30;;;;;;;2.58;1.63;;;17.40;99.90;;;;;;5072900;28;20199;-71
2023/09/20 05:23:58;;;;;;;5.07;2.42;;;17.40;99.90;;;;;;5072999;28;20321;-72
2023/09/20 05:26:26;;;;;;;6.38;2.85;;;17.30;99.90;;;;;;5072671;28;20202;-72
2023/09/20 05:28:53;;;;;;;4.45;2.70;;;17.30;99.90;;;;;;5072737;28;20602;-72
2023/09/20 05:31:23;;;;;;;5.00;2.33;;;17.30;99.90;;;;;;5072764;28;20641;-72
2023/09/20 05:33:50;;;;;;;2.42;2.13;;;17.20;99.90;;;;;;5072845;28;20252;-72
2023/09/20 05:36:21;;;;;;;5.95;2.55;;;17.20;99.90;;;;;;5072932;28;20682;-72
2023/09/20 05:38:48;;;;;;;3.42;1.95;;;17.20;99.90;;;;;;5073182;28;20248;-73
2023/09/20 05:41:17;;;;;;;4.38;2.13;;;17.10;99.90;;;;;;5072836;28;20210;-73
2023/09/20 05:43:44;;;;;;;4.03;2.78;;;17.20;99.90;;;;;;5072637;28;20217;-73
2023/09/20 05:46:13;;;;;;;5.20;2.70;;;17.20;99.90;;;;;;5076010;28;20236;-73
2023/09/20 05:48:41;;;;;;;3.00;2.05;;;17.20;99.90;;;;;;5082728;28;20523;-74
2023/09/20 05:51:08;;;;;;;4.38;2.83;;;17.00;99.90;;;;;;5092649;28;20395;-73
2023/09/20 05:53:35;;;;;;;4.88;3.10;;;17.00;99.90;;;;;;5073543;28;20208;-72
2023/09/20 05:56:08;;;;;;;6.03;2.63;;;17.10;99.90;;;;;;5072452;28;20230;-72
2023/09/20 05:58:36;;;;;;;3.85;2.85;;;17.20;99.90;;;;;;5072136;28;20206;-72
2023/09/20 06:01:03;;;;;;;9.13;3.20;;;17.20;99.90;;;;;;5072603;28;20234;-72
2023/09/20 06:03:30;;;;;;;3.95;2.17;;;17.20;99.90;;;;;;5071780;28;20233;-73
2023/09/20 06:05:57;;;;;;;9.02;3.13;;;17.20;99.90;;;;;;5091786;28;20647;-72
2023/09/20 06:08:24;;;;;;;5.05;3.08;;;17.10;99.90;;;;;;5091740;28;20649;-72
2023/09/20 06:10:52;;;;;;;5.35;2.90;;;16.90;99.90;;;;;;5092633;28;20289;-72
2023/09/20 06:13:20;;;;;;;6.47;2.97;;;16.80;99.90;;;;;;5092361;28;20206;-72
2023/09/20 06:15:48;;;;;;;6.63;3.20;;;16.90;99.90;;;;;;5092356;28;20760;-72
2023/09/20 06:18:17;;;;;;;7.22;2.85;;;17.00;99.90;;;;;;5092469;28;20280;-72
2023/09/20 06:20:46;;;;;;;4.28;2.63;;;17.00;99.90;;;;;;5092193;28;20202;-72
2023/09/20 06:23:14;;;;;;;5.82;2.20;;;16.80;99.90;;;;;;5092160;28;20205;-72
2023/09/20 06:25:42;;;;;;;2.90;2.10;;;16.90;99.90;;;;;;5091827;28;20240;-72
2023/09/20 06:28:09;;;;;;;5.88;3.92;;;16.70;99.90;;;;;;5092006;28;20581;-72
2023/09/20 06:30:36;;;;;;;5.70;2.33;;;16.80;99.90;;;;;;5091778;28;20202;-71
2023/09/20 06:33:04;;;;;;;5.93;2.45;;;16.90;99.90;;;;;;5091849;28;20224;-72
2023/09/20 06:35:31;;;;;;;2.35;2.00;;;17.10;99.90;;;;;;5091179;28;20234;-72
2023/09/20 06:37:58;;;;;;;4.15;2.35;;;17.10;99.90;;;;;;5091941;28;20288;-72
2023/09/20 06:40:33;;;;;;;6.13;2.42;;;17.20;99.90;;;;;;5088304;28;20244;-73
2023/09/20 06:43:01;;;;;;;4.45;2.53;;;17.20;99.90;;;;;;5086573;28;20205;-73
2023/09/20 06:45:28;;;;;;;4.97;2.63;;;17.20;99.90;;;;;;5083186;28;20279;-73
2023/09/20 06:47:55;;;;;;;4.90;2.55;;;17.20;99.90;;;;;;5090257;28;20280;-73
2023/09/20 06:50:24;;;;;;;4.53;2.92;;;17.30;99.90;;;;;;5083524;28;20569;-73
2023/09/20 06:52:54;;;;;;;4.93;2.38;;;17.40;99.90;;;;;;5078032;28;20668;-73
2023/09/20 06:55:21;;;;;;;3.05;2.40;;;17.80;99.90;;;;;;5084908;28;20259;-73
2023/09/20 06:57:49;;;;;;;4.45;2.67;;;18.00;99.90;;;;;;5084963;28;20607;-74
2023/09/20 07:00:24;;;;;;;5.78;2.95;;;18.20;99.90;;;;;;5082606;28;20237;-74
2023/09/20 07:02:52;;;;;;;5.68;2.65;;;18.30;99.90;;;;;;5080625;28;20208;-74
2023/09/20 07:05:21;;;;;;;4.78;2.75;;;18.40;99.90;;;;;;5077538;28;20237;-74
2023/09/20 07:07:49;;;;;;;6.57;3.17;;;18.50;99.90;;;;;;5087935;28;20292;-74
2023/09/20 07:10:16;;;;;;;6.10;2.28;;;18.50;99.90;;;;;;5085455;28;20205;-75
2023/09/20 07:12:44;;;;;;;4.05;2.08;;;18.50;99.90;;;;;;5090144;28;20236;-75
2023/09/20 07:15:15;;;;;;;2.63;2.15;;;18.60;99.90;;;;;;5091066;28;20312;-77
2023/09/20 07:17:43;;;;;;;3.05;2.10;;;18.70;99.90;;;;;;5089445;28;20259;-76
2023/09/20 07:20:14;;;;;;;4.70;2.15;;;18.70;99.90;;;;;;5075536;28;20293;-75
2023/09/20 07:22:43;;;;;;;3.92;2.28;;;18.60;99.90;;;;;;5089180;28;20618;-75
2023/09/20 07:25:17;;;;;;;4.60;2.13;;;18.60;99.90;;;;;;5091124;28;20247;-75
2023/09/20 07:27:45;;;;;;;5.25;1.95;;;18.60;99.90;;;;;;5090966;28;20200;-75
2023/09/20 07:30:17;;;;;;;5.35;2.42;;;18.70;99.90;;;;;;5089690;28;20232;-75
2023/09/20 07:32:44;;;;;;;7.80;2.55;;;18.80;99.90;;;;;;5083501;28;20236;-70
2023/09/20 07:35:26;;;;;;;3.30;2.40;;;18.90;99.90;;;;;;5083180;28;20236;-72
2023/09/20 07:37:56;;;;;;;6.30;1.90;;;19.00;99.90;;;;;;5084251;28;20233;-73
2023/09/20 07:40:29;;;;;;;5.45;2.08;;;19.30;99.90;;;;;;5084604;28;20263;-75
2023/09/20 07:42:59;;;;;;;5.78;2.38;;;19.10;99.90;;;;;;5083091;28;20202;-75
2023/09/20 07:45:31;;;;;;;6.10;2.58;;;19.10;99.90;;;;;;5070170;28;20233;-74
2023/09/20 07:48:00;;;;;;;4.25;2.13;;;19.30;99.90;;;;;;5073036;28;20198;-74
2023/09/20 07:50:29;;;;;;;3.28;2.30;;;19.50;99.90;;;;;;5084747;28;20297;-75
2023/09/20 07:52:57;;;;;;;5.43;2.05;;;19.30;99.90;;;;;;5084761;28;20554;-76
2023/09/20 07:55:26;;;;;;;3.28;2.53;;;19.40;99.90;;;;;;5070247;28;20238;-75
2023/09/20 07:57:58;;;;;;;3.75;2.90;;;19.40;99.90;;;;;;5083386;28;20241;-76
2023/09/20 08:00:26;;;;;;;4.38;2.75;;;19.50;99.90;;;;;;5086824;28;20620;-75
2023/09/20 08:02:54;;;;;;;4.95;2.67;;;19.60;99.90;;;;;;5085787;28;20206;-75
2023/09/20 08:05:23;;;;;;;2.67;2.03;;;19.80;99.90;;;;;;5069563;28;20234;-74
2023/09/20 08:07:50;;;;;;;4.38;2.10;;;19.90;99.90;;;;;;5069903;28;20206;-75
2023/09/20 08:10:17;;;;;;;3.00;2.55;;;19.90;99.90;;;;;;5070487;28;20240;-76
2023/09/20 08:12:43;;;;;;;6.32;2.60;;;19.70;99.90;;;;;;5070384;28;20230;-76
2023/09/20 08:15:13;;;;;;;7.35;2.72;;;19.80;99.90;;;;;;5070565;28;20263;-76
2023/09/20 08:20:27;;;;;;;4.43;2.08;;;20.40;99.90;;;;;;5069881;28;20316;-76
2023/09/20 09:01:36;;;;;;;3.83;2.13;;;21.50;99.90;;;;;;5093429;28;20213;-76
2023/09/20 09:04:07;;;;;;;3.70;1.70;;;21.60;99.90;;;;;;5093772;28;20296;-79
2023/09/20 09:06:34;;;;;;;4.18;2.08;;;21.60;99.90;;;;;;5093092;28;20701;-78
2023/09/20 09:09:01;;;;;;;3.70;1.63;;;21.50;99.90;;;;;;5093506;28;20659;-75
2023/09/20 09:11:29;;;;;;;1.90;1.63;;;21.70;99.90;;;;;;5093044;28;20205;-77
2023/09/20 09:13:57;;;;;;;3.20;1.77;;;21.60;99.90;;;;;;5093472;28;20724;-77
2023/09/20 09:16:26;;;;;;;7.43;2.22;;;21.70;99.90;;;;;;5093197;28;20205;-76
2023/09/20 09:18:54;;;;;;;3.92;2.28;;;21.90;99.90;;;;;;5093317;28;20294;-74
2023/09/20 09:21:22;;;;;;;4.18;1.80;;;21.60;99.90;;;;;;5093215;28;20244;-76
2023/09/20 09:23:50;;;;;;;4.43;2.17;;;22.00;99.90;;;;;;5093401;28;20216;-76
2023/09/20 09:26:17;;;;;;;6.90;1.88;;;22.10;99.90;;;;;;5084232;28;20262;-72
2023/09/20 09:28:46;;;;;;;3.55;2.15;;;22.20;99.90;;;;;;5077542;28;20232;-72
2023/09/20 09:31:14;;;;;;;2.42;2.13;;;22.10;99.90;;;;;;5093425;28;20198;-74
2023/09/20 09:33:42;;;;;;;5.25;2.35;;;22.30;99.90;;;;;;5081412;28;20288;-74
2023/09/20 09:36:12;;;;;;;5.57;1.88;;;22.50;99.90;;;;;;5073042;28;20267;-75
2023/09/20 09:38:41;;;;;;;3.80;2.28;;;22.60;99.90;;;;;;5082310;28;20637;-75
2023/09/20 09:41:08;;;;;;;4.20;2.17;;;22.70;99.90;;;;;;5083779;28;20841;-75
2023/09/20 09:43:35;;;;;;;2.45;2.00;;;22.40;99.90;;;;;;5084195;28;20198;-76
2023/09/20 09:46:08;;;;;;;7.32;2.67;;;22.50;99.90;;;;;;5092114;28;20235;-76
2023/09/20 09:48:35;;;;;;;5.50;2.60;;;22.70;99.90;;;;;;5092690;28;20197;-76
2023/09/20 09:51:04;;;;;;;6.13;2.40;;;22.70;99.90;;;;;;5080761;28;20288;-75
2023/09/20 09:53:31;;;;;;;3.88;2.67;;;23.10;99.90;;;;;;5085988;28;20202;-75
2023/09/20 09:56:04;;;;;;;4.97;2.90;;;23.40;99.90;;;;;;5085424;28;20205;-76
2023/09/20 09:58:31;;;;;;;7.43;2.67;;;23.40;99.90;;;;;;5092325;28;20244;-74
2023/09/20 10:00:58;;;;;;;5.63;2.53;;;23.30;99.90;;;;;;5080653;28;20289;-76
2023/09/20 10:03:30;;;;;;;5.18;2.58;;;23.80;99.90;;;;;;5085115;28;20205;-77
2023/09/20 10:06:05;;;;;;;3.40;2.53;;;24.30;99.90;;;;;;5071368;28;20643;-78
2023/09/20 10:08:37;;;;;;;3.15;2.30;;;24.50;99.90;;;;;;5079061;28;20591;-79
2023/09/20 10:11:06;;;;;;;4.68;2.72;;;25.30;99.90;;;;;;5078492;28;20205;-80
2023/09/20 10:13:35;;;;;;;5.70;2.55;;;27.10;99.90;;;;;;5085671;28;20728;-79
2023/09/20 10:16:05;;;;;;;7.05;2.97;;;28.00;99.90;;;;;;5095726;28;20641;-77
2023/09/20 10:18:51;;;;;;;4.53;2.15;;;26.60;99.90;;;;;;5111517;28;20200;-73
2023/09/20 10:21:21;;;;;;;5.22;2.83;;;25.70;99.90;;;;;;5095612;28;20213;-75
2023/09/20 10:23:48;;;;;;;3.95;2.60;;;25.00;99.90;;;;;;5087105;28;20759;-73
2023/09/20 10:26:17;;;;;;;3.55;2.92;;;24.40;99.90;;;;;;5081192;28;20253;-75
2023/09/20 10:28:45;;;;;;;3.47;2.40;;;24.20;99.90;;;;;;5086966;28;20685;-75
2023/09/20 10:31:16;;;;;;;4.55;2.50;;;24.40;99.90;;;;;;5082768;28;20213;-75
2023/09/20 10:33:46;;;;;;;7.80;4.03;;;24.30;99.90;;;;;;5091847;28;20229;-75
2023/09/20 10:36:15;;;;;;;4.28;2.30;;;24.40;99.90;;;;;;5090714;28;20262;-74
2023/09/20 10:38:44;;;;;;;3.65;2.75;;;24.20;99.90;;;;;;5086476;28;20205;-74
2023/09/20 10:41:12;;;;;;;3.95;2.30;;;24.30;99.90;;;;;;5086749;28;20308;-74
2023/09/20 10:43:59;;;;;;;5.78;2.78;;;24.30;99.90;;;;;;5089857;28;20209;-75
2023/09/20 10:46:26;;;;;;;4.68;2.15;;;24.60;99.90;;;;;;5090723;28;20244;-75
2023/09/20 10:48:53;;;;;;;4.10;2.28;;;24.60;99.90;;;;;;5091840;28;20205;-75
2023/09/20 10:51:48;;;;;;;4.75;2.75;;;24.70;99.90;;;;;;5087134;28;20260;-74
2023/09/20 10:54:29;;;;;;;4.82;2.88;;;24.70;99.90;;;;;;5074905;28;20209;-74
2023/09/20 10:57:05;;;;;;;4.13;2.60;;;24.70;99.90;;;;;;5083240;28;20217;-74
2023/09/20 10:59:34;;;;;;;3.38;2.10;;;24.80;99.90;;;;;;5084541;28;20210;-73
2023/09/20 11:02:08;;;;;;;5.28;2.35;;;25.00;99.90;;;;;;5071350;28;20209;-73
2023/09/20 11:04:36;;;;;;;3.13;2.20;;;25.30;99.90;;;;;;5072846;28;20220;-73
2023/09/20 11:07:04;;;;;;;4.10;2.17;;;25.60;99.90;;;;;;5075833;28;20328;-74
2023/09/20 11:09:33;;;;;;;4.13;2.05;;;25.70;99.90;;;;;;5070932;28;20226;-72
2023/09/20 11:12:04;;;;;;;4.70;2.20;;;25.50;99.90;;;;;;5080833;28;20214;-74
2023/09/20 11:14:37;;;;;;;5.25;2.22;;;25.60;99.90;;;;;;5087152;28;20688;-75
2023/09/20 11:17:05;;;;;;;2.70;1.95;;;26.00;99.90;;;;;;5083936;28;20717;-75
2023/09/20 11:19:32;;;;;;;4.10;2.30;;;26.20;99.90;;;;;;5082760;28;20211;-74
2023/09/20 11:22:00;;;;;;;3.05;2.42;;;26.30;99.90;;;;;;5088466;28;20213;-72
2023/09/20 11:24:27;;;;;;;4.03;1.88;;;26.20;99.90;;;;;;5082179;28;20206;-71
2023/09/20 11:26:56;;;;;;;2.85;2.08;;;26.20;99.90;;;;;;5070699;28;20240;-76
2023/09/20 11:29:24;;;;;;;4.75;2.72;;;25.50;99.90;;;;;;5070036;28;20213;-75
2023/09/20 11:31:56;;;;;;;5.32;2.00;;;25.80;99.90;;;;;;5070986;28;20226;-74
2023/09/20 11:34:23;;;;;;;2.90;2.00;;;25.60;99.90;;;;;;5071360;28;20285;-75
2023/09/20 11:36:54;;;;;;;3.92;2.42;;;25.30;99.90;;;;;;5080881;28;20684;-76
2023/09/20 11:39:28;;;;;;;4.18;2.00;;;25.60;99.90;;;;;;5086983;28;20255;-76
2023/09/20 11:42:01;;;;;;;3.67;2.05;;;25.60;99.90;;;;;;5084433;28;20292;-81
2023/09/20 11:44:28;;;;;;;5.95;2.92;;;25.70;99.90;;;;;;5079886;28;20202;-77
2023/09/20 11:46:57;;;;;;;2.95;1.75;;;25.70;99.90;;;;;;5090156;28;20233;-75
2023/09/20 11:49:26;;;;;;;7.28;2.00;;;25.60;99.90;;;;;;5085232;28;20591;-76
2023/09/20 11:51:53;;;;;;;2.53;2.05;;;25.70;99.90;;;;;;5082701;28;20208;-74
2023/09/20 11:54:26;;;;;;;2.78;1.70;;;26.00;99.90;;;;;;5086398;28;20664;-72
2023/09/20 11:56:58;;;;;;;4.13;1.80;;;26.00;99.90;;;;;;5092459;28;20213;-75
2023/09/20 11:59:24;;;;;;;4.25;1.80;;;25.70;99.90;;;;;;5081749;28;20296;-85
2023/09/20 12:01:51;;;;;;;4.47;1.98;;;26.00;99.90;;;;;;5090332;28;20248;-78
2023/09/20 12:04:20;;;;;;;5.80;2.10;;;25.60;99.90;;;;;;5076363;28;20336;-74
2023/09/20 12:06:50;;;;;;;3.10;1.92;;;25.60;99.90;;;;;;5074749;28;20237;-76
2023/09/20 12:09:18;;;;;;;3.17;2.20;;;25.60;99.90;;;;;;5080885;28;20648;-77
2023/09/20 12:11:45;;;;;;;2.38;1.60;;;25.20;99.90;;;;;;5081147;28;20311;-76
2023/09/20 12:14:13;;;;;;;3.72;1.75;;;25.20;99.90;;;;;;5084307;28;20237;-76
2023/09/20 12:16:41;;;;;;;2.88;1.85;;;25.20;99.90;;;;;;5076394;28;20221;-78
2023/09/20 12:19:08;;;;;;;6.20;2.15;;;24.90;99.90;;;;;;5094260;28;20267;-79
2023/09/20 12:21:36;;;;;;;3.92;2.13;;;25.00;99.90;;;;;;5091741;28;20230;-75
2023/09/20 12:24:04;;;;;;;5.82;2.03;;;24.90;99.90;;;;;;5087884;28;20237;-73
2023/09/20 12:26:31;;;;;;;6.47;2.38;;;24.90;99.90;;;;;;5078377;28;20316;-75
2023/09/20 12:28:58;;;;;;;6.47;1.77;;;25.10;99.90;;;;;;5081088;28;20206;-74
2023/09/20 12:31:25;;;;;;;4.22;2.00;;;25.20;99.90;;;;;;5091909;28;20271;-74
2023/09/20 12:33:52;;;;;;;4.95;1.83;;;25.50;99.90;;;;;;5090096;28;20213;-74
2023/09/20 12:36:23;;;;;;;9.98;2.28;;;25.60;99.90;;;;;;5092543;28;20206;-78
2023/09/20 12:38:52;;;;;;;3.53;1.95;;;25.70;99.90;;;;;;5084594;28;20241;-78
2023/09/20 12:41:20;;;;;;;3.35;1.40;;;25.70;99.90;;;;;;5078057;28;20301;-78
2023/09/20 12:43:47;;;;;;;6.25;2.53;;;25.70;99.90;;;;;;5091848;28;20212;-68
2023/09/20 12:46:16;;;;;;;4.68;2.20;;;25.90;99.90;;;;;;5094161;28;20236;-77
2023/09/20 12:48:44;;;;;;;5.82;2.47;;;25.80;99.90;;;;;;5091143;28;20625;-77
2023/09/20 12:51:12;;;;;;;4.93;1.80;;;26.00;99.90;;;;;;5080029;28;20283;-79
2023/09/20 12:53:39;;;;;;;3.92;1.95;;;25.90;99.90;;;;;;5079187;28;20242;-78
2023/09/20 12:56:12;;;;;;;4.95;1.77;;;26.10;99.90;;;;;;5083395;28;20244;-75
2023/09/20 12:58:41;;;;;;;3.10;2.40;;;26.20;99.90;;;;;;5082314;28;20274;-78
2023/09/20 13:01:09;;;;;;;4.47;1.88;;;26.50;99.90;;;;;;5091437;28;20550;-74
2023/09/20 13:03:37;;;;;;;4.53;1.67;;;26.50;99.90;;;;;;5072736;28;20210;-75
2023/09/20 13:06:05;;;;;;;4.50;1.48;;;26.60;99.90;;;;;;5074364;28;20671;-74
2023/09/20 13:08:32;;;;;;;3.80;1.83;;;26.60;99.90;;;;;;5077476;28;20654;-74
2023/09/20 13:10:58;;;;;;;3.55;2.05;;;26.20;99.90;;;;;;5078790;28;20241;-78
2023/09/20 13:13:27;;;;;;;3.28;1.75;;;26.20;99.90;;;;;;5093217;28;20259;-76
2023/09/20 13:15:53;;;;;;;3.85;1.65;;;26.10;99.90;;;;;;5092960;28;20295;-71
2023/09/20 13:18:20;;;;;;;3.35;1.80;;;26.10;99.90;;;;;;5071868;28;20241;-73
2023/09/20 13:20:47;;;;;;;3.88;1.83;;;26.10;99.90;;;;;;5077536;28;20716;-73
2023/09/20 13:23:14;;;;;;;2.95;1.58;;;26.20;99.90;;;;;;5080286;28;20234;-73
2023/09/20 13:25:42;;;;;;;2.92;1.42;;;26.50;99.90;;;;;;5077244;28;20244;-73
2023/09/20 13:28:10;;;;;;;2.63;1.58;;;26.80;99.90;;;;;;5072457;28;20208;-73
2023/09/20 13:30:40;;;;;;;3.03;2.20;;;26.80;99.90;;;;;;5072458;28;20539;-73
2023/09/20 13:33:10;;;;;;;5.43;1.88;;;26.70;99.90;;;;;;5072850;28;20209;-74
2023/09/20 13:35:37;;;;;;;3.85;2.20;;;26.40;99.90;;;;;;5072624;28;20627;-73